Details for TUI Airlines UK (Thomson) at EGSS




Go Back


Latest METAR
Local Time

EGSS 180420Z AUTO 13004KT 4600 BR NCD 00/M00 Q1022

18/02/2018, 04:31:46

Description
Results
TUI Airlines UK (Thomson) Logo
Number of Pilots based at EGSS
2 Pilots Based here
Number of TUI Airlines UK (Thomson) Flights Departed from EGSS
0 Flights Departed
Number of TUI Airlines UK (Thomson) Flights Arrived at EGSS
0 Flights Arrived
Number of TUI Airlines UK (Thomson) Schedules Departing from EGSS
10 Schedules
Number of TUI Airlines UK (Thomson) Schedules Arriving at EGSS
10 Schedules
Number of TUI Airlines UK (Thomson) Schedules Departing from EGSS availible today
1 Schedules Today
Number of TUI Airlines UK (Thomson) Schedules Arriving at EGSS availible today
1 Schedules Today
Average Landing Rate at EGSS
-239 fpm
TUI Airlines UK (Thomson) Average Landing Rate at EGSS
0 fpm
Total Fuel Purchased at EGSS by TUI Airlines UK (Thomson)
0.00 kgs / 0.00 lbs

Pilots Based at EGSS


Pilot ID
Pilot Name
Pilot Rank
No. of Flights
No. of Flying Hours
Ian Hart
5
12.5
Joerg Pfeiffer
32
43.15
Content